createdAt,value
2022-08-28T00:00:29.231Z,7.35
2022-08-28T00:05:32.364Z,7.63
2022-08-28T00:10:34.278Z,8.65
2022-08-28T00:15:37.980Z,13.98
2022-08-28T00:20:40.436Z,9.32
2022-08-28T00:25:42.224Z,5.78
2022-08-28T00:30:49.427Z,11.27
2022-08-28T00:35:54.376Z,7.10
2022-08-28T00:40:59.881Z,7.93
2022-08-28T00:46:06.165Z,6.65
2022-08-28T00:51:08.391Z,7.18
2022-08-28T00:56:13.329Z,4.75
2022-08-28T01:01:15.341Z,5.30
2022-08-28T01:06:18.383Z,6.47
2022-08-28T01:11:20.572Z,7.57
2022-08-28T01:16:22.769Z,11.40
2022-08-28T01:21:39.742Z,6.60
2022-08-28T01:26:42.272Z,6.35
2022-08-28T01:31:44.012Z,7.13
2022-08-28T01:36:45.849Z,8.25
2022-08-28T01:41:49.596Z,7.75
2022-08-28T01:46:53.588Z,7.03
2022-08-28T01:51:55.568Z,7.05
2022-08-28T01:56:58.575Z,8.13
2022-08-28T02:02:00.441Z,6.28
2022-08-28T02:07:02.410Z,6.88
2022-08-28T02:12:04.706Z,9.05
2022-08-28T02:17:06.470Z,6.57
2022-08-28T02:22:07.974Z,5.72
2022-08-28T02:27:09.997Z,8.50
2022-08-28T02:32:12.181Z,8.63
2022-08-28T02:37:14.130Z,6.03
2022-08-28T02:42:15.923Z,6.70
2022-08-28T02:47:20.256Z,9.43
2022-08-28T02:52:22.122Z,11.32
2022-08-28T02:57:23.714Z,8.48
2022-08-28T03:02:26.204Z,7.00
2022-08-28T03:07:30.198Z,8.98
2022-08-28T03:12:32.037Z,8.77
2022-08-28T03:17:33.868Z,10.85
2022-08-28T03:22:38.141Z,9.77
2022-08-28T03:27:40.213Z,8.00
2022-08-28T03:32:41.908Z,11.45
2022-08-28T03:37:43.772Z,9.65
2022-08-28T03:42:53.226Z,10.10
2022-08-28T03:52:57.038Z,8.80
2022-08-28T03:57:58.782Z,11.27
2022-08-28T04:03:00.528Z,9.70
2022-08-28T04:08:03.328Z,7.10
2022-08-28T04:13:05.167Z,7.85
2022-08-28T04:18:07.370Z,8.68
2022-08-28T04:23:09.263Z,8.38
2022-08-28T04:28:10.926Z,8.20
2022-08-28T04:33:12.644Z,11.27
2022-08-28T04:38:14.223Z,13.77
2022-08-28T04:43:15.951Z,8.02
2022-08-28T04:48:18.385Z,7.78
2022-08-28T04:53:20.714Z,10.65
2022-08-28T04:58:23.968Z,17.13
2022-08-28T05:03:28.521Z,10.63
2022-08-28T05:08:30.288Z,10.00
2022-08-28T05:13:32.013Z,9.20
2022-08-28T05:18:34.066Z,9.20
2022-08-28T05:23:35.639Z,11.10
2022-08-28T05:28:37.193Z,13.13
2022-08-28T05:33:39.131Z,15.27
2022-08-28T05:38:51.245Z,12.45
2022-08-28T05:43:59.693Z,14.82
2022-08-28T05:49:01.631Z,14.50
2022-08-28T05:54:03.882Z,12.63
2022-08-28T05:59:06.699Z,11.93
2022-08-28T06:04:15.168Z,13.93
2022-08-28T06:09:29.691Z,10.15
2022-08-28T06:14:32.600Z,14.48
2022-08-28T06:19:41.123Z,11.80
2022-08-28T06:24:43.129Z,11.23
2022-08-28T06:29:44.587Z,15.60
2022-08-28T06:34:45.969Z,11.57
2022-08-28T06:39:47.380Z,14.05
2022-08-28T06:44:48.912Z,14.00
2022-08-28T06:49:50.428Z,11.80
2022-08-28T06:54:55.606Z,14.57
2022-08-28T06:59:58.444Z,9.07
2022-08-28T07:04:59.975Z,10.90
2022-08-28T07:10:03.532Z,11.18
2022-08-28T07:15:05.645Z,14.77
2022-08-28T07:20:07.673Z,11.05
2022-08-28T07:25:10.516Z,12.65
2022-08-28T07:30:12.186Z,10.30
2022-08-28T07:35:13.676Z,12.10
2022-08-28T07:40:15.600Z,11.30
2022-08-28T07:45:17.202Z,10.05
2022-08-28T07:50:18.770Z,11.43
2022-08-28T07:55:20.163Z,9.23
2022-08-28T08:00:22.446Z,10.48
2022-08-28T08:05:23.913Z,9.68
2022-08-28T08:10:25.439Z,11.32
2022-08-28T08:15:34.365Z,11.95
2022-08-28T08:20:35.887Z,11.10
2022-08-28T08:25:37.313Z,9.23
2022-08-28T08:30:38.789Z,11.65
2022-08-28T08:35:40.215Z,12.13
2022-08-28T08:40:41.729Z,11.13
2022-08-28T08:45:46.574Z,10.55
2022-08-28T08:50:48.565Z,9.43
2022-08-28T08:55:55.084Z,10.93
2022-08-28T09:01:03.930Z,8.68
2022-08-28T09:06:20.464Z,10.75
2022-08-28T09:11:29.723Z,15.57
2022-08-28T09:16:51.604Z,7.63
2022-08-28T09:21:53.603Z,8.32
2022-08-28T09:27:05.793Z,7.97
2022-08-28T09:32:30.444Z,8.45
2022-08-28T09:37:33.467Z,9.65
2022-08-28T09:42:34.948Z,8.05
2022-08-28T09:47:47.343Z,9.23
2022-08-28T09:52:50.108Z,13.65
2022-08-28T09:57:52.989Z,9.38
2022-08-28T10:03:14.515Z,9.57
2022-08-28T10:08:45.277Z,9.70
2022-08-28T10:14:01.248Z,9.07
2022-08-28T10:25:37.347Z,10.98
2022-08-28T10:31:33.624Z,9.00
2022-08-28T10:36:45.806Z,10.38
2022-08-28T10:47:58.190Z,10.52
2022-08-28T10:53:10.369Z,9.95
2022-08-28T10:58:23.996Z,9.98
2022-08-28T11:03:51.074Z,8.27
2022-08-28T11:08:58.528Z,9.00
2022-08-28T11:14:12.214Z,7.22
2022-08-28T11:19:43.879Z,6.55
2022-08-28T11:25:13.483Z,7.65
2022-08-28T11:30:38.590Z,10.57
2022-08-28T11:35:48.526Z,10.70
2022-08-28T11:40:55.122Z,7.35
2022-08-28T11:45:59.223Z,8.27
2022-08-28T11:51:17.677Z,6.10
2022-08-28T11:56:34.190Z,10.10
2022-08-28T12:01:36.180Z,8.95
2022-08-28T12:07:12.574Z,9.60
2022-08-28T12:12:22.825Z,7.70
2022-08-28T12:17:30.538Z,11.73
2022-08-28T12:23:04.326Z,6.70
2022-08-28T12:28:18.630Z,7.38
2022-08-28T12:33:39.395Z,8.98
2022-08-28T12:38:41.083Z,6.85
2022-08-28T12:43:47.056Z,7.45
2022-08-28T12:48:56.541Z,7.55
2022-08-28T12:54:03.909Z,10.52
2022-08-28T12:59:27.190Z,6.57
2022-08-28T13:04:36.493Z,7.07
2022-08-28T13:09:44.789Z,5.97
2022-08-28T13:14:46.452Z,8.82
2022-08-28T13:20:01.831Z,6.25
2022-08-28T13:25:04.291Z,6.93
2022-08-28T13:30:28.858Z,9.38
2022-08-28T13:35:39.736Z,6.28
2022-08-28T13:40:58.450Z,6.28
2022-08-28T13:46:00.702Z,8.13
2022-08-28T13:51:10.371Z,6.95
2022-08-28T13:56:12.406Z,6.10
2022-08-28T14:01:16.866Z,6.00
2022-08-28T14:06:32.069Z,9.46
2022-08-28T14:11:33.590Z,7.10
2022-08-28T14:16:39.708Z,4.72
2022-08-28T14:21:42.692Z,6.82
2022-08-28T14:26:44.348Z,7.85
2022-08-28T14:31:46.741Z,4.40
2022-08-28T14:36:52.924Z,8.73
2022-08-28T14:41:54.907Z,5.60
2022-08-28T14:47:05.698Z,5.30
2022-08-28T14:52:07.259Z,6.15
2022-08-28T14:57:09.843Z,7.32
2022-08-28T15:02:11.301Z,6.70
2022-08-28T15:07:12.720Z,6.50
2022-08-28T15:12:14.347Z,4.47
2022-08-28T15:17:18.263Z,8.18
2022-08-28T15:22:27.223Z,5.57
2022-08-28T15:27:29.277Z,9.32
2022-08-28T15:32:30.729Z,8.75
2022-08-28T15:37:32.222Z,8.52
2022-08-28T15:42:33.836Z,6.43
2022-08-28T15:47:36.417Z,7.10
2022-08-28T15:52:37.875Z,4.57
2022-08-28T15:57:39.278Z,7.50
2022-08-28T16:02:40.725Z,6.70
2022-08-28T16:07:42.383Z,7.78
2022-08-28T16:12:43.769Z,5.45
2022-08-28T16:17:49.330Z,6.78
2022-08-28T16:22:51.272Z,10.38
2022-08-28T16:27:52.662Z,6.90
2022-08-28T16:32:55.153Z,7.03
2022-08-28T16:37:56.998Z,6.22
2022-08-28T16:42:58.457Z,4.68
2022-08-28T16:48:00.684Z,7.28
2022-08-28T16:53:06.727Z,5.32
2022-08-28T16:58:08.844Z,6.30
2022-08-28T17:03:10.332Z,5.15
2022-08-28T17:08:11.926Z,4.95
2022-08-28T17:13:13.514Z,4.65
2022-08-28T17:18:15.151Z,9.60
2022-08-28T17:23:17.014Z,7.25
2022-08-28T17:28:18.437Z,7.05
2022-08-28T17:33:19.989Z,5.28
2022-08-28T17:38:22.022Z,6.97
2022-08-28T17:43:23.421Z,5.88
2022-08-28T17:48:24.909Z,6.10
2022-08-28T17:53:27.897Z,5.55
2022-08-28T17:58:29.449Z,8.45
2022-08-28T18:03:31.582Z,6.30
2022-08-28T18:08:39.902Z,5.03
2022-08-28T18:13:41.951Z,5.85
2022-08-28T18:18:43.550Z,6.93
2022-08-28T18:23:45.401Z,5.07
2022-08-28T18:28:47.198Z,5.65
2022-08-28T18:33:49.301Z,5.45
2022-08-28T18:38:51.816Z,7.13
2022-08-28T18:43:54.564Z,4.70
2022-08-28T18:48:56.524Z,7.95
2022-08-28T18:53:59.817Z,4.18
2022-08-28T18:59:02.219Z,5.43
2022-08-28T19:04:04.006Z,7.05
2022-08-28T19:09:05.442Z,5.40
2022-08-28T19:14:06.886Z,7.80
2022-08-28T19:19:08.902Z,6.47
2022-08-28T19:24:10.829Z,6.45
2022-08-28T19:29:12.496Z,6.18
2022-08-28T19:34:14.001Z,6.80
2022-08-28T19:39:15.438Z,5.50
2022-08-28T19:44:17.128Z,5.65
2022-08-28T19:49:18.602Z,7.80
2022-08-28T19:54:20.214Z,6.97
2022-08-28T19:59:25.220Z,6.35
2022-08-28T20:04:29.877Z,6.72
2022-08-28T20:09:31.305Z,8.27
2022-08-28T20:14:32.766Z,8.23
2022-08-28T20:19:34.347Z,6.07
2022-08-28T20:24:37.447Z,8.65
2022-08-28T20:29:38.859Z,5.95
2022-08-28T20:34:44.387Z,5.53
2022-08-28T20:39:46.075Z,6.50
2022-08-28T20:44:47.662Z,6.50
2022-08-28T20:49:49.114Z,6.43
2022-08-28T20:54:50.599Z,8.05
2022-08-28T20:59:52.295Z,7.88
2022-08-28T21:04:54.755Z,5.75
2022-08-28T21:10:05.002Z,6.15
2022-08-28T21:15:11.187Z,6.70
2022-08-28T21:20:14.729Z,6.18
2022-08-28T21:25:16.850Z,8.70
2022-08-28T21:30:20.936Z,10.25
2022-08-28T21:35:22.600Z,5.57
2022-08-28T21:40:24.062Z,5.32
2022-08-28T21:45:25.573Z,6.28
2022-08-28T21:50:27.121Z,8.25
2022-08-28T21:55:29.400Z,6.63
2022-08-28T22:00:30.886Z,8.93
2022-08-28T22:05:32.575Z,7.80
2022-08-28T22:10:35.507Z,10.30
2022-08-28T22:15:42.839Z,6.90
2022-08-28T22:20:45.543Z,4.97
2022-08-28T22:25:46.977Z,7.82
2022-08-28T22:30:48.481Z,8.48
2022-08-28T22:35:51.728Z,5.20
2022-08-28T22:40:53.183Z,5.28
2022-08-28T22:45:54.913Z,7.45
2022-08-28T22:51:10.456Z,5.72
2022-08-28T22:56:12.977Z,6.95
2022-08-28T23:01:19.763Z,5.00
2022-08-28T23:06:21.174Z,5.50
2022-08-28T23:11:22.923Z,5.70
2022-08-28T23:16:24.492Z,7.80
2022-08-28T23:21:26.623Z,6.50
2022-08-28T23:26:28.077Z,5.80
2022-08-28T23:31:29.489Z,7.20
2022-08-28T23:36:31.150Z,6.88
2022-08-28T23:41:33.266Z,8.32
2022-08-28T23:46:35.080Z,5.72
2022-08-28T23:51:37.704Z,5.10
2022-08-28T23:56:39.258Z,6.85
